sensor_id;sensor_type;location;lat;lon;timestamp;pressure;altitude;pressure_sealevel;temperature;humidity
23281;BME280;11809;56.390;-3.266;2023-02-19T00:01:44;101572.56;;;15.58;53.02
23281;BME280;11809;56.390;-3.266;2023-02-19T00:04:15;101576.13;;;15.57;52.58
23281;BME280;11809;56.390;-3.266;2023-02-19T00:06:42;101577.13;;;15.54;52.72
23281;BME280;11809;56.390;-3.266;2023-02-19T00:09:12;101575.47;;;15.52;53.02
23281;BME280;11809;56.390;-3.266;2023-02-19T00:11:39;101572.91;;;15.50;53.09
23281;BME280;11809;56.390;-3.266;2023-02-19T00:14:07;101577.44;;;15.48;52.91
23281;BME280;11809;56.390;-3.266;2023-02-19T00:16:37;101578.44;;;15.46;52.98
23281;BME280;11809;56.390;-3.266;2023-02-19T00:19:06;101580.25;;;15.44;53.11
23281;BME280;11809;56.390;-3.266;2023-02-19T00:21:34;101582.09;;;15.42;53.41
23281;BME280;11809;56.390;-3.266;2023-02-19T00:24:03;101581.25;;;15.41;52.85
23281;BME280;11809;56.390;-3.266;2023-02-19T00:26:31;101574.25;;;15.40;53.44
23281;BME280;11809;56.390;-3.266;2023-02-19T00:28:59;101576.16;;;15.37;53.26
23281;BME280;11809;56.390;-3.266;2023-02-19T00:31:31;101587.09;;;15.29;52.69
23281;BME280;11809;56.390;-3.266;2023-02-19T00:34:02;101584.94;;;15.18;53.29
23281;BME280;11809;56.390;-3.266;2023-02-19T00:36:30;101583.41;;;15.13;53.28
23281;BME280;11809;56.390;-3.266;2023-02-19T00:38:57;101590.56;;;15.11;53.01
23281;BME280;11809;56.390;-3.266;2023-02-19T00:41:24;101595.22;;;15.06;53.65
23281;BME280;11809;56.390;-3.266;2023-02-19T00:44:05;101596.19;;;15.03;53.33
23281;BME280;11809;56.390;-3.266;2023-02-19T00:46:34;101597.03;;;15.04;53.34
23281;BME280;11809;56.390;-3.266;2023-02-19T00:49:02;101604.28;;;15.00;53.70
23281;BME280;11809;56.390;-3.266;2023-02-19T00:51:31;101601.75;;;14.97;53.84
23281;BME280;11809;56.390;-3.266;2023-02-19T00:53:58;101597.50;;;14.93;53.86
23281;BME280;11809;56.390;-3.266;2023-02-19T00:56:26;101599.31;;;14.93;53.56
23281;BME280;11809;56.390;-3.266;2023-02-19T00:58:53;101609.91;;;14.93;53.95
23281;BME280;11809;56.390;-3.266;2023-02-19T01:01:20;101612.47;;;14.94;54.22
23281;BME280;11809;56.390;-3.266;2023-02-19T01:03:48;101603.75;;;14.92;54.39
23281;BME280;11809;56.390;-3.266;2023-02-19T01:06:17;101611.03;;;14.87;54.53
23281;BME280;11809;56.390;-3.266;2023-02-19T01:08:44;101610.19;;;14.85;54.39
23281;BME280;11809;56.390;-3.266;2023-02-19T01:11:12;101613.78;;;14.84;54.59
23281;BME280;11809;56.390;-3.266;2023-02-19T01:13:39;101615.56;;;14.84;54.75
23281;BME280;11809;56.390;-3.266;2023-02-19T01:16:13;101615.66;;;14.82;54.57
23281;BME280;11809;56.390;-3.266;2023-02-19T01:18:42;101616.56;;;14.81;54.85
23281;BME280;11809;56.390;-3.266;2023-02-19T01:21:28;101621.00;;;14.81;54.52
23281;BME280;11809;56.390;-3.266;2023-02-19T01:23:56;101622.84;;;14.79;54.91
23281;BME280;11809;56.390;-3.266;2023-02-19T01:26:28;101636.13;;;14.77;55.09
23281;BME280;11809;56.390;-3.266;2023-02-19T01:28:56;101636.28;;;14.74;54.65
23281;BME280;11809;56.390;-3.266;2023-02-19T01:31:23;101642.41;;;14.75;54.92
23281;BME280;11809;56.390;-3.266;2023-02-19T01:34:01;101642.41;;;14.75;54.69
23281;BME280;11809;56.390;-3.266;2023-02-19T01:36:32;101636.41;;;14.71;54.93
23281;BME280;11809;56.390;-3.266;2023-02-19T01:39:00;101626.66;;;14.72;54.95
23281;BME280;11809;56.390;-3.266;2023-02-19T01:41:32;101631.91;;;14.73;55.43
23281;BME280;11809;56.390;-3.266;2023-02-19T01:44:05;101625.81;;;14.71;55.41
23281;BME280;11809;56.390;-3.266;2023-02-19T01:46:41;101638.09;;;14.72;55.11
23281;BME280;11809;56.390;-3.266;2023-02-19T01:49:16;101645.25;;;14.70;55.37
23281;BME280;11809;56.390;-3.266;2023-02-19T01:51:51;101653.09;;;14.72;55.50
23281;BME280;11809;56.390;-3.266;2023-02-19T01:54:21;101650.53;;;14.70;55.51
23281;BME280;11809;56.390;-3.266;2023-02-19T01:56:51;101659.38;;;14.69;55.78
23281;BME280;11809;56.390;-3.266;2023-02-19T01:59:18;101664.63;;;14.71;55.58
23281;BME280;11809;56.390;-3.266;2023-02-19T02:01:45;101655.91;;;14.69;55.51
23281;BME280;11809;56.390;-3.266;2023-02-19T02:04:13;101655.84;;;14.70;55.39
23281;BME280;11809;56.390;-3.266;2023-02-19T02:06:50;101653.97;;;14.72;55.68
23281;BME280;11809;56.390;-3.266;2023-02-19T02:09:19;101660.22;;;14.71;55.48
23281;BME280;11809;56.390;-3.266;2023-02-19T02:12:05;101657.56;;;14.71;55.49
23281;BME280;11809;56.390;-3.266;2023-02-19T02:14:35;101654.09;;;14.69;55.65
23281;BME280;11809;56.390;-3.266;2023-02-19T02:22:20;101674.44;;;14.69;55.81
23281;BME280;11809;56.390;-3.266;2023-02-19T02:30:45;101684.06;;;14.70;55.79
23281;BME280;11809;56.390;-3.266;2023-02-19T02:33:38;101675.25;;;14.69;55.97
23281;BME280;11809;56.390;-3.266;2023-02-19T02:36:13;101675.25;;;14.69;55.92
23281;BME280;11809;56.390;-3.266;2023-02-19T02:38:44;101686.72;;;14.70;55.96
23281;BME280;11809;56.390;-3.266;2023-02-19T02:41:13;101685.91;;;14.68;55.99
23281;BME280;11809;56.390;-3.266;2023-02-19T02:43:41;101692.88;;;14.70;55.90
23281;BME280;11809;56.390;-3.266;2023-02-19T02:46:10;101689.47;;;14.67;56.00
23281;BME280;11809;56.390;-3.266;2023-02-19T02:48:43;101695.59;;;14.69;56.27
23281;BME280;11809;56.390;-3.266;2023-02-19T02:51:21;101693.00;;;14.67;56.27
23281;BME280;11809;56.390;-3.266;2023-02-19T02:56:38;101701.72;;;14.69;56.38
23281;BME280;11809;56.390;-3.266;2023-02-19T02:59:09;101700.94;;;14.67;55.89
23281;BME280;11809;56.390;-3.266;2023-02-19T03:01:41;101701.72;;;14.69;56.01
23281;BME280;11809;56.390;-3.266;2023-02-19T03:07:04;101708.63;;;14.73;56.14
23281;BME280;11809;56.390;-3.266;2023-02-19T03:09:40;101703.38;;;14.72;56.38
23281;BME280;11809;56.390;-3.266;2023-02-19T03:12:13;101704.25;;;14.72;55.92
23281;BME280;11809;56.390;-3.266;2023-02-19T03:15:04;101703.47;;;14.70;56.29
23281;BME280;11809;56.390;-3.266;2023-02-19T03:17:55;101707.84;;;14.71;56.32
23281;BME280;11809;56.390;-3.266;2023-02-19T03:20:45;101711.41;;;14.70;56.21
23281;BME280;11809;56.390;-3.266;2023-02-19T03:23:16;101712.19;;;14.72;56.32
23281;BME280;11809;56.390;-3.266;2023-02-19T03:25:44;101706.09;;;14.70;56.40
23281;BME280;11809;56.390;-3.266;2023-02-19T03:28:32;101698.25;;;14.69;56.52
23281;BME280;11809;56.390;-3.266;2023-02-19T03:31:23;101696.44;;;14.69;56.20
23281;BME280;11809;56.390;-3.266;2023-02-19T03:33:55;101700.72;;;14.72;56.32
23281;BME280;11809;56.390;-3.266;2023-02-19T03:36:24;101700.69;;;14.73;55.98
23281;BME280;11809;56.390;-3.266;2023-02-19T03:39:04;101693.75;;;14.71;56.08
23281;BME280;11809;56.390;-3.266;2023-02-19T03:46:57;101713.91;;;14.73;56.43
23281;BME280;11809;56.390;-3.266;2023-02-19T04:00:24;101725.38;;;14.74;56.79
23281;BME280;11809;56.390;-3.266;2023-02-19T04:02:55;101729.69;;;14.76;56.38
23281;BME280;11809;56.390;-3.266;2023-02-19T04:05:28;101728.75;;;14.77;56.06
23281;BME280;11809;56.390;-3.266;2023-02-19T04:08:01;101733.25;;;14.75;56.27
23281;BME280;11809;56.390;-3.266;2023-02-19T04:10:30;101734.97;;;14.76;56.63
23281;BME280;11809;56.390;-3.266;2023-02-19T04:13:05;101738.41;;;14.78;56.59
23281;BME280;11809;56.390;-3.266;2023-02-19T04:15:39;101726.09;;;14.77;56.70
23281;BME280;11809;56.390;-3.266;2023-02-19T04:18:14;101733.13;;;14.78;56.40
23281;BME280;11809;56.390;-3.266;2023-02-19T04:20:43;101729.56;;;14.79;56.14
23281;BME280;11809;56.390;-3.266;2023-02-19T04:23:12;101719.03;;;14.78;56.23
23281;BME280;11809;56.390;-3.266;2023-02-19T04:25:43;101715.47;;;14.79;56.48
23281;BME280;11809;56.390;-3.266;2023-02-19T04:28:12;101716.34;;;14.79;56.20
23281;BME280;11809;56.390;-3.266;2023-02-19T04:30:40;101720.69;;;14.80;56.41
23281;BME280;11809;56.390;-3.266;2023-02-19T04:33:07;101707.44;;;14.80;56.66
23281;BME280;11809;56.390;-3.266;2023-02-19T04:35:34;101683.63;;;14.80;56.74
23281;BME280;11809;56.390;-3.266;2023-02-19T04:38:00;101664.19;;;14.81;56.48
23281;BME280;11809;56.390;-3.266;2023-02-19T04:40:27;101663.28;;;14.82;56.52
23281;BME280;11809;56.390;-3.266;2023-02-19T04:42:54;101661.53;;;14.81;56.40
23281;BME280;11809;56.390;-3.266;2023-02-19T04:45:21;101673.00;;;14.82;56.25
23281;BME280;11809;56.390;-3.266;2023-02-19T04:47:48;101676.50;;;14.82;56.29
23281;BME280;11809;56.390;-3.266;2023-02-19T04:50:15;101677.34;;;14.83;56.80
23281;BME280;11809;56.390;-3.266;2023-02-19T04:52:42;101694.09;;;14.83;56.48
23281;BME280;11809;56.390;-3.266;2023-02-19T04:55:09;101683.50;;;14.83;56.77
23281;BME280;11809;56.390;-3.266;2023-02-19T04:57:36;101686.94;;;14.85;56.51
23281;BME280;11809;56.390;-3.266;2023-02-19T05:00:03;101701.13;;;14.84;56.30
23281;BME280;11809;56.390;-3.266;2023-02-19T05:02:30;101706.41;;;14.84;56.34
23281;BME280;11809;56.390;-3.266;2023-02-19T05:04:57;101690.66;;;14.81;56.70
23281;BME280;11809;56.390;-3.266;2023-02-19T05:07:24;101685.25;;;14.84;56.67
23281;BME280;11809;56.390;-3.266;2023-02-19T05:09:51;101676.50;;;14.82;56.73
23281;BME280;11809;56.390;-3.266;2023-02-19T05:12:18;101671.22;;;14.82;56.37
23281;BME280;11809;56.390;-3.266;2023-02-19T05:14:45;101671.16;;;14.84;56.70
23281;BME280;11809;56.390;-3.266;2023-02-19T05:17:11;101658.91;;;14.81;56.63
23281;BME280;11809;56.390;-3.266;2023-02-19T05:19:38;101663.13;;;14.85;56.48
23281;BME280;11809;56.390;-3.266;2023-02-19T05:22:05;101654.34;;;14.85;56.44
23281;BME280;11809;56.390;-3.266;2023-02-19T05:24:32;101647.41;;;14.82;56.49
23281;BME280;11809;56.390;-3.266;2023-02-19T05:26:59;101639.31;;;14.85;56.68
23281;BME280;11809;56.390;-3.266;2023-02-19T05:29:26;101642.91;;;14.84;56.86
23281;BME280;11809;56.390;-3.266;2023-02-19T05:31:53;101650.75;;;14.86;56.22
23281;BME280;11809;56.390;-3.266;2023-02-19T05:34:19;101655.19;;;14.85;56.30
23281;BME280;11809;56.390;-3.266;2023-02-19T05:36:46;101655.19;;;14.85;56.17
23281;BME280;11809;56.390;-3.266;2023-02-19T05:39:13;101653.47;;;14.84;56.54
23281;BME280;11809;56.390;-3.266;2023-02-19T05:41:40;101669.25;;;14.87;56.42
23281;BME280;11809;56.390;-3.266;2023-02-19T05:44:09;101663.94;;;14.87;56.59
23281;BME280;11809;56.390;-3.266;2023-02-19T05:46:36;101662.22;;;14.86;56.36
23281;BME280;11809;56.390;-3.266;2023-02-19T05:49:03;101663.22;;;14.84;56.76
23281;BME280;11809;56.390;-3.266;2023-02-19T05:51:30;101661.34;;;14.86;56.71
23281;BME280;11809;56.390;-3.266;2023-02-19T05:53:57;101657.78;;;14.87;56.48
23281;BME280;11809;56.390;-3.266;2023-02-19T05:56:36;101663.94;;;14.87;56.64
23281;BME280;11809;56.390;-3.266;2023-02-19T05:59:06;101657.72;;;14.88;56.47
23281;BME280;11809;56.390;-3.266;2023-02-19T06:01:34;101660.34;;;14.88;56.54
23281;BME280;11809;56.390;-3.266;2023-02-19T06:04:01;101668.28;;;14.88;56.69
23281;BME280;11809;56.390;-3.266;2023-02-19T06:06:28;101668.28;;;14.88;56.51
23281;BME280;11809;56.390;-3.266;2023-02-19T06:08:55;101664.78;;;14.88;56.38
23281;BME280;11809;56.390;-3.266;2023-02-19T06:11:22;101666.53;;;14.89;56.77
23281;BME280;11809;56.390;-3.266;2023-02-19T06:13:49;101664.66;;;14.91;56.42
23281;BME280;11809;56.390;-3.266;2023-02-19T06:16:17;101644.47;;;14.88;56.55
23281;BME280;11809;56.390;-3.266;2023-02-19T06:18:44;101657.47;;;14.94;56.66
23281;BME280;11809;56.390;-3.266;2023-02-19T06:21:12;101643.38;;;14.94;56.09
23281;BME280;11809;56.390;-3.266;2023-02-19T06:23:40;101637.19;;;14.93;56.58
23281;BME280;11809;56.390;-3.266;2023-02-19T06:28:41;101625.81;;;14.91;56.63
23281;BME280;11809;56.390;-3.266;2023-02-19T06:31:09;101613.66;;;14.87;56.70
23281;BME280;11809;56.390;-3.266;2023-02-19T06:33:38;101615.31;;;14.90;56.75
23281;BME280;11809;56.390;-3.266;2023-02-19T06:36:10;101615.50;;;14.85;56.86
23281;BME280;11809;56.390;-3.266;2023-02-19T06:38:37;101630.34;;;14.89;56.70
23281;BME280;11809;56.390;-3.266;2023-02-19T06:41:05;101620.75;;;14.87;56.96
23281;BME280;11809;56.390;-3.266;2023-02-19T06:43:33;101604.91;;;14.85;56.63
23281;BME280;11809;56.390;-3.266;2023-02-19T06:46:02;101614.56;;;14.86;56.79
23281;BME280;11809;56.390;-3.266;2023-02-19T06:48:30;101595.19;;;14.86;56.70
23281;BME280;11809;56.390;-3.266;2023-02-19T06:50:58;101591.63;;;14.87;56.99
23281;BME280;11809;56.390;-3.266;2023-02-19T06:53:25;101595.25;;;14.84;56.65
23281;BME280;11809;56.390;-3.266;2023-02-19T06:56:00;101604.00;;;14.86;56.73
23281;BME280;11809;56.390;-3.266;2023-02-19T06:58:28;101609.16;;;14.89;56.80
23281;BME280;11809;56.390;-3.266;2023-02-19T07:00:55;101620.19;;;14.99;56.47
23281;BME280;11809;56.390;-3.266;2023-02-19T07:03:22;101629.53;;;15.07;56.47
23281;BME280;11809;56.390;-3.266;2023-02-19T07:05:49;101623.00;;;15.16;55.97
23281;BME280;11809;56.390;-3.266;2023-02-19T07:08:16;101634.16;;;15.23;55.67
23281;BME280;11809;56.390;-3.266;2023-02-19T07:10:44;101638.22;;;15.31;55.48
23281;BME280;11809;56.390;-3.266;2023-02-19T07:13:11;101622.97;;;15.36;55.39
23281;BME280;11809;56.390;-3.266;2023-02-19T07:15:38;101622.72;;;15.42;55.43
23281;BME280;11809;56.390;-3.266;2023-02-19T07:18:04;101622.56;;;15.45;55.35
23281;BME280;11809;56.390;-3.266;2023-02-19T07:20:36;101636.63;;;15.47;54.95
23281;BME280;11809;56.390;-3.266;2023-02-19T07:23:03;101650.75;;;15.48;54.38
23281;BME280;11809;56.390;-3.266;2023-02-19T07:25:30;101636.41;;;15.52;54.52
23281;BME280;11809;56.390;-3.266;2023-02-19T07:27:57;101627.56;;;15.53;54.62
23281;BME280;11809;56.390;-3.266;2023-02-19T07:30:24;101630.13;;;15.54;54.52
23281;BME280;11809;56.390;-3.266;2023-02-19T07:32:51;101637.06;;;15.57;54.62
23281;BME280;11809;56.390;-3.266;2023-02-19T07:35:18;101641.44;;;15.58;54.60
23281;BME280;11809;56.390;-3.266;2023-02-19T07:37:45;101641.41;;;15.59;54.67
23281;BME280;11809;56.390;-3.266;2023-02-19T07:40:12;101645.84;;;15.59;54.55
23281;BME280;11809;56.390;-3.266;2023-02-19T07:42:39;101633.44;;;15.59;54.53
23281;BME280;11809;56.390;-3.266;2023-02-19T07:45:06;101633.22;;;15.64;54.64
23281;BME280;11809;56.390;-3.266;2023-02-19T07:47:33;101633.16;;;15.65;54.41
23281;BME280;11809;56.390;-3.266;2023-02-19T07:49:59;101646.75;;;15.58;52.92
23281;BME280;11809;56.390;-3.266;2023-02-19T07:52:26;101636.56;;;15.08;49.93
23281;BME280;11809;56.390;-3.266;2023-02-19T07:58:15;101628.59;;;14.46;50.55
23281;BME280;11809;56.390;-3.266;2023-02-19T08:00:42;101598.28;;;14.75;51.36
23281;BME280;11809;56.390;-3.266;2023-02-19T08:03:10;101612.22;;;15.00;52.67
23281;BME280;11809;56.390;-3.266;2023-02-19T08:05:39;101607.16;;;15.14;52.68
23281;BME280;11809;56.390;-3.266;2023-02-19T08:08:13;101598.94;;;15.21;52.86
23281;BME280;11809;56.390;-3.266;2023-02-19T08:10:40;101595.09;;;15.28;52.12
23281;BME280;11809;56.390;-3.266;2023-02-19T08:13:28;101584.31;;;15.32;52.68
23281;BME280;11809;56.390;-3.266;2023-02-19T08:16:10;101570.84;;;15.37;53.03
23281;BME280;11809;56.390;-3.266;2023-02-19T08:18:47;101565.13;;;15.07;50.23
23281;BME280;11809;56.390;-3.266;2023-02-19T08:21:14;101567.84;;;14.65;49.92
23281;BME280;11809;56.390;-3.266;2023-02-19T08:23:43;101567.97;;;14.42;49.77
23281;BME280;11809;56.390;-3.266;2023-02-19T08:26:12;101570.72;;;14.39;49.99
23281;BME280;11809;56.390;-3.266;2023-02-19T08:28:39;101573.94;;;14.67;51.61
23281;BME280;11809;56.390;-3.266;2023-02-19T08:31:08;101565.22;;;14.85;51.86
23281;BME280;11809;56.390;-3.266;2023-02-19T08:33:36;101559.41;;;14.97;52.15
23281;BME280;11809;56.390;-3.266;2023-02-19T08:36:06;101548.56;;;15.03;52.56
23281;BME280;11809;56.390;-3.266;2023-02-19T08:38:34;101548.25;;;15.09;52.53
23281;BME280;11809;56.390;-3.266;2023-02-19T08:41:07;101543.59;;;15.14;52.74
23281;BME280;11809;56.390;-3.266;2023-02-19T08:43:35;101543.47;;;15.17;53.01
23281;BME280;11809;56.390;-3.266;2023-02-19T08:46:03;101552.22;;;15.19;53.15
23281;BME280;11809;56.390;-3.266;2023-02-19T08:48:30;101545.13;;;15.20;53.02
23281;BME280;11809;56.390;-3.266;2023-02-19T08:51:00;101552.81;;;15.26;53.50
23281;BME280;11809;56.390;-3.266;2023-02-19T08:53:31;101540.44;;;15.27;53.39
23281;BME280;11809;56.390;-3.266;2023-02-19T08:55:58;101534.00;;;15.32;54.07
23281;BME280;11809;56.390;-3.266;2023-02-19T08:58:29;101539.16;;;15.35;53.84
23281;BME280;11809;56.390;-3.266;2023-02-19T09:00:58;101536.44;;;15.37;54.10
23281;BME280;11809;56.390;-3.266;2023-02-19T09:03:28;101539.59;;;15.45;53.92
23281;BME280;11809;56.390;-3.266;2023-02-19T09:05:55;101525.38;;;15.47;53.97
23281;BME280;11809;56.390;-3.266;2023-02-19T09:08:22;101542.00;;;15.51;54.40
23281;BME280;11809;56.390;-3.266;2023-02-19T09:11:02;101545.69;;;15.47;54.39
23281;BME280;11809;56.390;-3.266;2023-02-19T09:13:30;101548.34;;;15.47;54.42
23281;BME280;11809;56.390;-3.266;2023-02-19T09:15:57;101555.25;;;15.51;54.52
23281;BME280;11809;56.390;-3.266;2023-02-19T09:18:24;101554.38;;;15.50;54.74
23281;BME280;11809;56.390;-3.266;2023-02-19T09:20:51;101556.81;;;15.55;54.66
23281;BME280;11809;56.390;-3.266;2023-02-19T09:23:18;101563.69;;;15.59;54.76
23281;BME280;11809;56.390;-3.266;2023-02-19T09:25:45;101557.31;;;15.63;55.02
23281;BME280;11809;56.390;-3.266;2023-02-19T09:28:12;101561.59;;;15.65;55.32
23281;BME280;11809;56.390;-3.266;2023-02-19T09:30:39;101564.06;;;15.70;55.08
23281;BME280;11809;56.390;-3.266;2023-02-19T09:33:06;101566.53;;;15.73;55.46
23281;BME280;11809;56.390;-3.266;2023-02-19T09:35:37;101562.84;;;15.77;55.44
23281;BME280;11809;56.390;-3.266;2023-02-19T09:38:05;101563.47;;;15.82;55.34
23281;BME280;11809;56.390;-3.266;2023-02-19T09:40:34;101559.81;;;15.85;55.52
23281;BME280;11809;56.390;-3.266;2023-02-19T09:43:08;101558.66;;;15.90;55.63
23281;BME280;11809;56.390;-3.266;2023-02-19T09:45:38;101556.78;;;15.92;55.44
23281;BME280;11809;56.390;-3.266;2023-02-19T09:48:07;101549.63;;;15.94;55.28
23281;BME280;11809;56.390;-3.266;2023-02-19T09:50:39;101538.88;;;15.97;55.17
23281;BME280;11809;56.390;-3.266;2023-02-19T09:53:35;101530.78;;;16.00;55.23
23281;BME280;11809;56.390;-3.266;2023-02-19T09:56:06;101529.84;;;16.01;55.17
23281;BME280;11809;56.390;-3.266;2023-02-19T09:58:39;101536.09;;;16.00;55.15
23281;BME280;11809;56.390;-3.266;2023-02-19T10:01:10;101538.72;;;16.00;55.00
23281;BME280;11809;56.390;-3.266;2023-02-19T10:03:40;101542.16;;;16.02;55.07
23281;BME280;11809;56.390;-3.266;2023-02-19T10:06:31;101540.47;;;16.01;54.92
23281;BME280;11809;56.390;-3.266;2023-02-19T10:09:16;101558.06;;;16.02;54.92
23281;BME280;11809;56.390;-3.266;2023-02-19T10:11:47;101534.22;;;16.02;55.14
23281;BME280;11809;56.390;-3.266;2023-02-19T10:14:20;101554.34;;;16.06;55.14
23281;BME280;11809;56.390;-3.266;2023-02-19T10:16:48;101553.25;;;16.10;55.00
23281;BME280;11809;56.390;-3.266;2023-02-19T10:19:16;101546.88;;;16.14;55.04
23281;BME280;11809;56.390;-3.266;2023-02-19T10:21:43;101541.44;;;16.17;54.78
23281;BME280;11809;56.390;-3.266;2023-02-19T10:24:24;101535.13;;;16.20;54.77
23281;BME280;11809;56.390;-3.266;2023-02-19T10:26:53;101527.06;;;16.21;54.63
23281;BME280;11809;56.390;-3.266;2023-02-19T10:29:20;101526.16;;;16.22;54.74
23281;BME280;11809;56.390;-3.266;2023-02-19T10:31:48;101519.97;;;16.22;54.65
23281;BME280;11809;56.390;-3.266;2023-02-19T10:34:22;101503.19;;;16.21;54.62
23281;BME280;11809;56.390;-3.266;2023-02-19T10:36:49;101492.38;;;16.26;54.38
23281;BME280;11809;56.390;-3.266;2023-02-19T10:41:49;101466.41;;;16.32;54.29
23281;BME280;11809;56.390;-3.266;2023-02-19T10:44:25;101454.72;;;16.36;54.19
23281;BME280;11809;56.390;-3.266;2023-02-19T10:46:56;101455.53;;;16.37;54.32
23281;BME280;11809;56.390;-3.266;2023-02-19T10:49:30;101460.78;;;16.38;54.33
23281;BME280;11809;56.390;-3.266;2023-02-19T10:52:11;101459.78;;;16.41;54.21
23281;BME280;11809;56.390;-3.266;2023-02-19T10:54:54;101459.78;;;16.41;54.11
23281;BME280;11809;56.390;-3.266;2023-02-19T10:57:29;101454.53;;;16.39;53.89
23281;BME280;11809;56.390;-3.266;2023-02-19T11:00:22;101456.16;;;16.42;53.59
23281;BME280;11809;56.390;-3.266;2023-02-19T11:03:20;101444.88;;;16.38;53.79
23281;BME280;11809;56.390;-3.266;2023-02-19T11:06:00;101445.72;;;16.39;53.84
23281;BME280;11809;56.390;-3.266;2023-02-19T11:08:28;101433.41;;;16.38;54.01
23281;BME280;11809;56.390;-3.266;2023-02-19T11:10:56;101431.59;;;16.38;53.88
23281;BME280;11809;56.390;-3.266;2023-02-19T11:13:29;101421.06;;;16.37;53.89
23281;BME280;11809;56.390;-3.266;2023-02-19T11:15:58;101413.09;;;16.37;53.80
23281;BME280;11809;56.390;-3.266;2023-02-19T11:18:28;101409.41;;;16.39;53.95
23281;BME280;11809;56.390;-3.266;2023-02-19T11:20:59;101411.16;;;16.41;53.87
23281;BME280;11809;56.390;-3.266;2023-02-19T11:23:36;101408.66;;;16.37;53.39
23281;BME280;11809;56.390;-3.266;2023-02-19T11:26:05;101412.06;;;16.39;53.42
23281;BME280;11809;56.390;-3.266;2023-02-19T11:28:42;101393.50;;;16.39;53.42
23281;BME280;11809;56.390;-3.266;2023-02-19T11:31:13;101401.56;;;16.38;53.38
23281;BME280;11809;56.390;-3.266;2023-02-19T11:33:44;101410.22;;;16.42;53.32
23281;BME280;11809;56.390;-3.266;2023-02-19T11:38:41;101406.00;;;16.37;53.44
23281;BME280;11809;56.390;-3.266;2023-02-19T11:50:32;101368.97;;;16.69;53.86
23281;BME280;11809;56.390;-3.266;2023-02-19T11:55:42;101349.78;;;16.64;54.59
23281;BME280;11809;56.390;-3.266;2023-02-19T11:58:44;101353.25;;;16.66;54.24
23281;BME280;11809;56.390;-3.266;2023-02-19T12:25:35;101294.91;;;17.11;53.48
23281;BME280;11809;56.390;-3.266;2023-02-19T12:28:22;101298.94;;;17.18;53.34
23281;BME280;11809;56.390;-3.266;2023-02-19T12:41:58;101277.97;;;17.43;52.61
23281;BME280;11809;56.390;-3.266;2023-02-19T12:44:39;101265.66;;;17.42;52.08
23281;BME280;11809;56.390;-3.266;2023-02-19T12:47:18;101271.38;;;17.50;52.52
23281;BME280;11809;56.390;-3.266;2023-02-19T12:52:27;101222.75;;;17.48;52.28
23281;BME280;11809;56.390;-3.266;2023-02-19T12:55:18;101218.22;;;17.50;52.76
23281;BME280;11809;56.390;-3.266;2023-02-19T12:57:48;101192.00;;;17.44;52.76
23281;BME280;11809;56.390;-3.266;2023-02-19T13:05:37;101224.94;;;17.72;52.43
23281;BME280;11809;56.390;-3.266;2023-02-19T13:11:34;101192.94;;;17.87;52.48
23281;BME280;11809;56.390;-3.266;2023-02-19T13:16:44;101212.63;;;17.99;52.43
23281;BME280;11809;56.390;-3.266;2023-02-19T13:19:16;101197.50;;;17.99;52.03
23281;BME280;11809;56.390;-3.266;2023-02-19T13:21:45;101196.25;;;18.05;51.83
23281;BME280;11809;56.390;-3.266;2023-02-19T13:24:36;101173.13;;;18.07;51.58
23281;BME280;11809;56.390;-3.266;2023-02-19T13:30:09;101186.00;;;18.13;51.23
23281;BME280;11809;56.390;-3.266;2023-02-19T13:32:46;101165.47;;;18.15;51.15
23281;BME280;11809;56.390;-3.266;2023-02-19T13:38:01;101168.63;;;18.22;50.82
23281;BME280;11809;56.390;-3.266;2023-02-19T13:40:33;101161.88;;;18.16;50.93
23281;BME280;11809;56.390;-3.266;2023-02-19T13:43:26;101144.19;;;18.15;51.28
23281;BME280;11809;56.390;-3.266;2023-02-19T13:45:56;101133.56;;;18.15;51.31
23281;BME280;11809;56.390;-3.266;2023-02-19T13:48:36;101131.47;;;18.20;51.17
23281;BME280;11809;56.390;-3.266;2023-02-19T14:04:20;101066.84;;;18.18;51.38
23281;BME280;11809;56.390;-3.266;2023-02-19T14:28:13;101051.34;;;17.98;51.10
23281;BME280;11809;56.390;-3.266;2023-02-19T14:30:52;101016.84;;;17.96;51.05
23281;BME280;11809;56.390;-3.266;2023-02-19T14:33:30;100992.72;;;17.99;51.09
23281;BME280;11809;56.390;-3.266;2023-02-19T14:36:04;100998.34;;;17.95;50.93
23281;BME280;11809;56.390;-3.266;2023-02-19T14:38:36;100981.25;;;17.99;50.97
23281;BME280;11809;56.390;-3.266;2023-02-19T14:41:05;100992.44;;;18.04;51.01
23281;BME280;11809;56.390;-3.266;2023-02-19T14:43:34;100962.00;;;18.08;50.98
23281;BME280;11809;56.390;-3.266;2023-02-19T14:46:07;100947.03;;;18.07;50.84
23281;BME280;11809;56.390;-3.266;2023-02-19T14:48:43;100965.41;;;18.10;50.70
23281;BME280;11809;56.390;-3.266;2023-02-19T14:51:15;100949.81;;;18.18;50.63
23281;BME280;11809;56.390;-3.266;2023-02-19T14:53:48;100919.53;;;18.33;50.60
23281;BME280;11809;56.390;-3.266;2023-02-19T14:56:19;100955.28;;;18.42;50.34
23281;BME280;11809;56.390;-3.266;2023-02-19T15:01:31;100965.16;;;18.54;49.69
23281;BME280;11809;56.390;-3.266;2023-02-19T15:03:59;100933.94;;;18.56;49.65
23281;BME280;11809;56.390;-3.266;2023-02-19T15:06:27;100932.88;;;18.58;49.55
23281;BME280;11809;56.390;-3.266;2023-02-19T15:08:58;100920.56;;;18.57;49.53
23281;BME280;11809;56.390;-3.266;2023-02-19T15:11:28;100904.47;;;18.59;49.72
23281;BME280;11809;56.390;-3.266;2023-02-19T15:14:01;100892.88;;;18.60;49.60
23281;BME280;11809;56.390;-3.266;2023-02-19T15:16:33;100892.75;;;18.61;49.75
23281;BME280;11809;56.390;-3.266;2023-02-19T15:19:05;100898.81;;;18.63;49.65
23281;BME280;11809;56.390;-3.266;2023-02-19T15:21:37;100898.72;;;18.65;49.74
23281;BME280;11809;56.390;-3.266;2023-02-19T15:24:06;100897.75;;;18.66;49.50
23281;BME280;11809;56.390;-3.266;2023-02-19T15:26:37;100910.84;;;18.56;49.22
23281;BME280;11809;56.390;-3.266;2023-02-19T15:29:11;100899.34;;;18.56;49.33